Historyczne dane pomiarowe

Dodano dane terminowe – wersja testowa.

Dane z okresu 1951-2018

Wersja bazy: 1.27 [2018-11-28, lista zmian], aktualizacja planowana na 2018-12-07

Dane meteo z obszaru Polski uzyskane na podstawie danych udostępnionych przez Instytut Meteorologii i Gospodarki Wodnej – Państwowy Instytut Badawczy.

 

Wybierz Datę:    

       

TemperaturaWilgotnośćWiatrCiśnienieOpadyŚniegCzas trwania zjawisk
 Stacja t tx tn tng RH VA  wxwx mslp ppp RRR   cm mm wxwxwxwxwxwxwx
1959-11-08 3.6 4.0 2.2- 95.8- 8.0 3.3---- 0.2------------
1959-11-09 4.5 5.2 3.0- 97.0- 8.0 0.7---- 1.1------------
1959-11-10 5.4 6.7 4.1- 97.0- 8.0 1.3---- 0.5------------
1959-11-11 5.1 7.3 3.6- 93.3- 8.0 1.3---- 0.0------------
1959-11-12 3.6 6.8 -1.1- 93.3- 7.7 1.7---- 0.0------------
1959-11-13 4.9 5.7 3.0- 85.0- 8.0 3.7---- 0.0------------
1959-11-14 6.4 8.1 4.3- 79.3- 7.7 6.0---- 0.0------------
1959-11-15 1.5 6.5 0.4- 76.5- 4.3 5.0---- 0.0------------
1959-11-16 -2.0 0.9 -3.6- 84.3- 3.0 4.0---- 0.0------------
1959-11-17 -2.6 -1.6 -3.8- 93.0- 8.0 2.0---- 1.1------------
1959-11-18 0.1 1.1 -3.0- 92.0- 8.0 6.0---- 0.0-- 1---------
1959-11-19 2.0 2.7 0.4- 96.0- 8.0 1.7---- 6.6------------
1959-11-20 3.9 4.7 2.0- 96.8- 8.0 1.0---- 0.0------------
1959-11-21 0.3 4.4 -0.6- 90.0- 8.0 2.0---- 0.0------------
1959-11-22 -2.9 -0.1 -7.0- 97.3- 5.7 2.0---- 0.0------------
1959-11-23 -0.6 -0.1 -2.4- 99.5- 8.0 2.7---- 0.2------------
1959-11-24 0.3 4.3 -1.5- 93.3- 2.7 2.0---- 0.0------------
1959-11-25 -1.6 3.6 -4.0- 85.0- 1.0 1.3---- 0.0------------
1959-11-26 -4.4 -1.5 -9.4- 97.0- 8.0 1.0---- 0.0------------
1959-11-27 0.0 1.7 -4.5- 96.0- 8.0 2.0---- 0.0------------
1959-11-28 2.5 3.8 -0.1- 91.8- 7.3 2.3---- 0.0------------
1959-11-29 2.2 3.8 1.6- 96.0- 8.0 1.0---- 5.5------------
1959-11-30 2.8 4.0 -0.2- 97.8- 8.0 0.7---- 0.0------------
1959-12-01 1.6 3.8 -0.1- 96.0- 8.0 2.7---- 0.2------------
1959-12-02 2.4 3.0 1.5- 97.0- 8.0 0.3---- 12.5------------
1959-12-03 3.2 3.8 2.2- 96.8- 8.0 0.0---- 0.6------------
1959-12-04 -0.1 3.7 -1.5- 97.5- 8.0 2.3---- 19.0------------
1959-12-05 -8.0 -1.3-10.5- 89.0- 8.0 3.7---- 2.4------------
1959-12-06-14.6-10.2-16.5- 82.3- 2.7 4.3---- 0.0------------
1959-12-07-15.5-13.9-18.8- 93.0- 5.3 4.7---- 2.1------------
147.5 ms

 

Źródłem pochodzenia danych jest Instytut Meteorologii i Gospodarki Wodnej – Państwowy Instytut Badawczy. Dane Instytutu Meteorologii i Gospodarki Wodnej – Państwowego Instytutu Badawczego zostały przetworzone.

Dane źródłowe można odnaleźć na stronie https://dane.imgw.pl